createdAt,value
2023-03-03T00:00:13.120Z,16.10
2023-03-03T00:02:14.630Z,16.30
2023-03-03T00:04:16.096Z,15.95
2023-03-03T00:06:17.913Z,15.90
2023-03-03T00:08:20.078Z,16.70
2023-03-03T00:10:21.556Z,16.38
2023-03-03T00:12:28.886Z,15.15
2023-03-03T00:14:32.907Z,15.82
2023-03-03T00:16:39.072Z,14.18
2023-03-03T00:18:43.917Z,14.85
2023-03-03T00:20:50.259Z,15.02
2023-03-03T00:22:51.924Z,15.48
2023-03-03T00:24:54.019Z,15.88
2023-03-03T00:27:00.749Z,14.85
2023-03-03T00:29:02.942Z,16.25
2023-03-03T00:31:16.617Z,15.90
2023-03-03T00:33:32.419Z,15.13
2023-03-03T00:35:35.759Z,15.07
2023-03-03T00:37:41.218Z,15.73
2023-03-03T00:39:42.669Z,16.23
2023-03-03T00:41:44.370Z,15.90
2023-03-03T00:43:45.824Z,16.83
2023-03-03T00:45:55.824Z,16.08
2023-03-03T00:47:58.423Z,16.50
2023-03-03T00:50:05.874Z,16.20
2023-03-03T00:52:18.526Z,17.27
2023-03-03T00:54:20.078Z,15.73
2023-03-03T00:56:21.635Z,17.38
2023-03-03T00:58:25.125Z,16.48
2023-03-03T01:00:26.619Z,17.55
2023-03-03T01:02:28.223Z,17.48
2023-03-03T01:04:29.754Z,17.85
2023-03-03T01:06:31.184Z,16.73
2023-03-03T01:08:32.980Z,16.80
2023-03-03T01:10:39.169Z,15.82
2023-03-03T01:12:40.879Z,16.90
2023-03-03T01:14:42.461Z,17.60
2023-03-03T01:16:44.040Z,17.08
2023-03-03T01:18:46.006Z,16.23
2023-03-03T01:20:47.596Z,16.42
2023-03-03T01:22:49.108Z,17.42
2023-03-03T01:24:50.559Z,17.17
2023-03-03T01:26:52.016Z,17.35
2023-03-03T01:28:53.468Z,17.42
2023-03-03T01:30:55.120Z,17.48
2023-03-03T01:32:56.993Z,17.90
2023-03-03T01:34:58.483Z,17.45
2023-03-03T01:37:01.072Z,18.30
2023-03-03T01:39:02.633Z,18.73
2023-03-03T01:41:04.332Z,18.67
2023-03-03T01:43:06.044Z,18.15
2023-03-03T01:45:15.585Z,19.35
2023-03-03T01:47:24.865Z,18.52
2023-03-03T01:49:35.442Z,18.20
2023-03-03T01:51:52.610Z,18.88
2023-03-03T01:54:01.201Z,19.58
2023-03-03T01:56:05.830Z,18.92
2023-03-03T01:58:39.038Z,19.30
2023-03-03T02:00:44.541Z,19.33
2023-03-03T02:02:46.793Z,19.25
2023-03-03T02:04:49.918Z,19.10
2023-03-03T02:06:56.674Z,20.15
2023-03-03T02:09:03.859Z,22.30
2023-03-03T02:11:06.554Z,22.95
2023-03-03T02:13:08.213Z,22.55
2023-03-03T02:15:17.112Z,22.15
2023-03-03T02:17:18.692Z,21.38
2023-03-03T02:19:47.433Z,22.75
2023-03-03T02:21:48.994Z,22.65
2023-03-03T02:24:07.598Z,22.38
2023-03-03T02:26:22.784Z,23.08
2023-03-03T02:28:27.616Z,22.73
2023-03-03T02:30:29.194Z,23.48
2023-03-03T02:32:30.685Z,22.42
2023-03-03T02:34:46.908Z,21.67
2023-03-03T02:36:48.418Z,21.48
2023-03-03T02:38:59.194Z,24.05
2023-03-03T02:41:23.231Z,23.92
2023-03-03T02:43:32.503Z,25.70
2023-03-03T02:45:34.115Z,26.35
2023-03-03T02:47:35.615Z,28.70
2023-03-03T02:49:37.616Z,34.03
2023-03-03T02:51:40.211Z,35.13
2023-03-03T02:53:41.721Z,34.95
2023-03-03T02:55:43.186Z,35.78
2023-03-03T02:57:44.703Z,35.90
2023-03-03T02:59:49.621Z,37.75
2023-03-03T03:01:51.882Z,36.20
2023-03-03T03:03:53.379Z,38.28
2023-03-03T03:05:54.821Z,40.17
2023-03-03T03:07:56.288Z,39.50
2023-03-03T03:09:57.796Z,40.05
2023-03-03T03:12:02.415Z,39.70
2023-03-03T03:14:06.441Z,40.05
2023-03-03T03:16:08.275Z,42.50
2023-03-03T03:18:09.717Z,44.05
2023-03-03T03:20:11.813Z,41.05
2023-03-03T03:22:13.268Z,43.60
2023-03-03T03:24:14.755Z,43.90
2023-03-03T03:26:16.229Z,43.97
2023-03-03T03:28:18.881Z,43.65
2023-03-03T03:30:23.155Z,45.60
2023-03-03T03:32:24.738Z,44.15
2023-03-03T03:34:26.330Z,44.03
2023-03-03T03:36:28.288Z,41.70
2023-03-03T03:38:32.400Z,40.10
2023-03-03T03:40:33.887Z,40.55
2023-03-03T03:42:35.415Z,40.38
2023-03-03T03:44:37.150Z,40.13
2023-03-03T03:46:38.638Z,40.15
2023-03-03T03:48:40.168Z,38.72
2023-03-03T03:50:41.640Z,37.58
2023-03-03T03:52:43.789Z,35.42
2023-03-03T03:54:45.331Z,36.70
2023-03-03T03:56:46.845Z,34.90
2023-03-03T03:58:48.305Z,33.22
2023-03-03T04:00:49.900Z,30.67
2023-03-03T04:02:52.313Z,31.40
2023-03-03T04:04:53.978Z,28.13
2023-03-03T04:06:55.462Z,28.17
2023-03-03T04:08:57.328Z,31.00
2023-03-03T04:10:59.090Z,32.03
2023-03-03T04:13:00.752Z,28.30
2023-03-03T04:15:02.224Z,28.40
2023-03-03T04:17:03.690Z,29.15
2023-03-03T04:19:05.206Z,30.63
2023-03-03T04:21:06.684Z,29.58
2023-03-03T04:23:08.129Z,29.67
2023-03-03T04:25:14.686Z,29.67
2023-03-03T04:27:16.246Z,29.52
2023-03-03T04:29:17.674Z,29.73
2023-03-03T04:31:20.543Z,29.35
2023-03-03T04:33:22.081Z,30.50
2023-03-03T04:35:24.902Z,30.88
2023-03-03T04:37:26.575Z,29.88
2023-03-03T04:39:28.753Z,29.08
2023-03-03T04:41:30.261Z,30.83
2023-03-03T04:43:31.715Z,25.55
2023-03-03T04:45:33.299Z,24.58
2023-03-03T04:47:34.960Z,24.42
2023-03-03T04:49:37.037Z,22.83
2023-03-03T04:51:38.578Z,18.83
2023-03-03T04:53:40.082Z,18.85
2023-03-03T04:55:42.024Z,18.35
2023-03-03T04:57:43.576Z,19.38
2023-03-03T04:59:45.096Z,20.38
2023-03-03T05:01:46.702Z,20.52
2023-03-03T05:03:48.289Z,21.83
2023-03-03T05:05:50.291Z,20.77
2023-03-03T05:07:51.757Z,21.50
2023-03-03T05:09:53.223Z,23.40
2023-03-03T05:11:54.908Z,24.08
2023-03-03T05:13:56.354Z,24.50
2023-03-03T05:15:57.925Z,24.92
2023-03-03T05:17:59.623Z,26.08
2023-03-03T05:20:01.165Z,28.08
2023-03-03T05:22:02.661Z,27.98
2023-03-03T05:24:04.320Z,24.90
2023-03-03T05:26:06.094Z,26.70
2023-03-03T05:28:07.797Z,24.23
2023-03-03T05:30:11.611Z,25.77
2023-03-03T05:32:13.086Z,25.88
2023-03-03T05:34:14.573Z,21.48
2023-03-03T05:36:16.053Z,21.08
2023-03-03T05:38:17.715Z,19.67
2023-03-03T05:40:19.813Z,19.38
2023-03-03T05:42:21.940Z,20.40
2023-03-03T05:44:23.485Z,19.30
2023-03-03T05:46:24.973Z,18.65
2023-03-03T05:48:27.460Z,17.92
2023-03-03T05:50:28.940Z,18.27
2023-03-03T05:52:30.463Z,17.73
2023-03-03T05:54:32.074Z,17.75
2023-03-03T05:56:33.592Z,18.13
2023-03-03T05:58:35.068Z,19.15
2023-03-03T06:00:36.548Z,18.75
2023-03-03T06:02:38.057Z,19.15
2023-03-03T06:04:39.959Z,18.52
2023-03-03T06:06:41.630Z,21.70
2023-03-03T06:08:43.196Z,21.63
2023-03-03T06:10:44.694Z,22.27
2023-03-03T06:12:46.272Z,23.65
2023-03-03T06:14:47.768Z,27.45
2023-03-03T06:16:49.275Z,26.70
2023-03-03T06:18:50.786Z,26.15
2023-03-03T06:20:53.546Z,26.02
2023-03-03T06:22:55.094Z,28.50
2023-03-03T06:24:56.564Z,26.30
2023-03-03T06:26:58.949Z,29.27
2023-03-03T06:29:01.483Z,26.98
2023-03-03T06:31:02.994Z,27.38
2023-03-03T06:33:04.555Z,25.85
2023-03-03T06:35:06.519Z,26.92
2023-03-03T06:37:08.011Z,26.90
2023-03-03T06:39:09.455Z,26.60
2023-03-03T06:41:11.413Z,29.02
2023-03-03T06:43:13.450Z,28.08
2023-03-03T06:45:15.287Z,25.63
2023-03-03T06:47:17.145Z,25.35
2023-03-03T06:49:18.981Z,25.23
2023-03-03T06:51:30.803Z,24.88
2023-03-03T06:53:33.204Z,28.55
2023-03-03T06:55:34.674Z,30.63
2023-03-03T06:57:37.165Z,31.75
2023-03-03T06:59:38.899Z,33.83
2023-03-03T07:01:41.859Z,34.47
2023-03-03T07:03:43.802Z,34.67
2023-03-03T07:05:45.379Z,32.08
2023-03-03T07:07:46.980Z,32.97
2023-03-03T07:09:51.112Z,33.88
2023-03-03T07:11:56.778Z,35.35
2023-03-03T07:13:58.845Z,34.40
2023-03-03T07:16:06.418Z,33.92
2023-03-03T07:18:25.791Z,34.40
2023-03-03T07:20:38.313Z,31.17
2023-03-03T07:22:39.795Z,31.60
2023-03-03T07:24:43.134Z,33.45
2023-03-03T07:26:44.604Z,31.27
2023-03-03T07:29:30.488Z,30.45
2023-03-03T07:31:39.642Z,26.98
2023-03-03T07:33:46.887Z,29.70
2023-03-03T07:35:48.428Z,23.38
2023-03-03T07:37:49.948Z,21.27
2023-03-03T07:39:51.733Z,20.33
2023-03-03T07:42:00.733Z,18.88
2023-03-03T07:44:13.425Z,20.23
2023-03-03T07:46:42.893Z,17.58
2023-03-03T07:48:44.721Z,15.90
2023-03-03T07:50:46.369Z,15.40
2023-03-03T07:53:00.737Z,15.32
2023-03-03T07:55:19.884Z,15.75
2023-03-03T07:57:36.773Z,16.20
2023-03-03T07:59:50.460Z,15.88
2023-03-03T08:01:58.735Z,17.05
2023-03-03T08:04:00.502Z,14.98
2023-03-03T08:06:24.121Z,14.15
2023-03-03T08:08:37.007Z,13.75
2023-03-03T08:10:48.219Z,13.55
2023-03-03T08:12:49.756Z,13.30
2023-03-03T08:14:52.458Z,13.73
2023-03-03T08:16:53.991Z,15.70
2023-03-03T08:19:01.909Z,15.70
2023-03-03T08:21:14.685Z,15.05
2023-03-03T08:23:18.056Z,17.48
2023-03-03T08:25:19.576Z,19.27
2023-03-03T08:27:21.076Z,18.33
2023-03-03T08:29:22.580Z,18.60
2023-03-03T08:31:39.717Z,18.40
2023-03-03T08:33:42.463Z,19.02
2023-03-03T08:35:44.731Z,18.05
2023-03-03T08:37:46.238Z,19.40
2023-03-03T08:39:47.719Z,20.15
2023-03-03T08:41:49.174Z,19.95
2023-03-03T08:43:50.664Z,20.65
2023-03-03T08:45:54.187Z,20.77
2023-03-03T08:47:56.577Z,20.83
2023-03-03T08:49:58.149Z,18.83
2023-03-03T08:52:00.753Z,18.63
2023-03-03T08:54:02.274Z,22.40
2023-03-03T08:56:05.207Z,20.75
2023-03-03T08:58:06.697Z,20.48
2023-03-03T09:00:11.968Z,22.13
2023-03-03T09:02:13.650Z,22.35
2023-03-03T09:04:15.182Z,20.98
2023-03-03T09:06:16.665Z,21.08
2023-03-03T09:08:18.176Z,22.27
2023-03-03T09:10:29.334Z,22.98
2023-03-03T09:12:35.259Z,24.10
2023-03-03T09:14:36.730Z,22.38
2023-03-03T09:16:41.769Z,23.27
2023-03-03T09:18:44.181Z,22.95
2023-03-03T09:20:48.335Z,21.75
2023-03-03T09:22:50.859Z,20.13
2023-03-03T09:24:57.181Z,18.42
2023-03-03T09:26:59.749Z,19.73
2023-03-03T09:29:11.382Z,19.95
2023-03-03T09:31:30.170Z,19.48
2023-03-03T09:33:42.410Z,19.13
2023-03-03T09:35:45.544Z,19.55
2023-03-03T09:37:52.158Z,19.20
2023-03-03T09:39:56.246Z,19.90
2023-03-03T09:42:19.247Z,19.35
2023-03-03T09:44:29.903Z,18.58
2023-03-03T09:46:49.569Z,17.38
2023-03-03T09:48:51.052Z,16.38
2023-03-03T09:51:18.394Z,19.67
2023-03-03T09:53:59.829Z,18.13
2023-03-03T09:56:16.716Z,17.40
2023-03-03T09:58:36.541Z,19.05
2023-03-03T10:01:10.544Z,22.15
2023-03-03T10:03:33.351Z,17.67
2023-03-03T10:05:42.886Z,17.23
2023-03-03T10:08:26.526Z,16.13
2023-03-03T10:10:46.027Z,13.77
2023-03-03T10:13:01.759Z,14.75
2023-03-03T10:15:12.237Z,14.65
2023-03-03T10:17:23.315Z,14.02
2023-03-03T10:19:48.106Z,12.15
2023-03-03T10:22:28.429Z,10.35
2023-03-03T10:24:35.526Z,8.73
2023-03-03T10:27:12.116Z,8.10
2023-03-03T10:29:23.176Z,7.28
2023-03-03T10:31:45.336Z,4.97
2023-03-03T10:34:00.501Z,4.47
2023-03-03T10:36:08.226Z,4.13
2023-03-03T10:38:32.154Z,4.80
2023-03-03T10:40:42.868Z,4.55
2023-03-03T10:42:51.174Z,4.63
2023-03-03T10:45:26.214Z,4.43
2023-03-03T10:47:37.244Z,4.50
2023-03-03T10:50:08.092Z,4.57
2023-03-03T10:52:34.264Z,4.70
2023-03-03T10:55:08.027Z,4.40
2023-03-03T10:57:38.350Z,4.60
2023-03-03T11:00:16.816Z,4.40
2023-03-03T11:07:11.857Z,2.80
2023-03-03T11:09:51.143Z,3.40
2023-03-03T11:12:04.128Z,3.20
2023-03-03T11:14:18.251Z,2.85
2023-03-03T11:16:31.837Z,3.70
2023-03-03T11:18:48.041Z,3.08
2023-03-03T11:21:02.089Z,2.60
2023-03-03T11:23:22.306Z,2.47
2023-03-03T11:25:55.542Z,2.15
2023-03-03T11:28:15.384Z,2.83
2023-03-03T11:30:17.783Z,3.28
2023-03-03T11:32:40.239Z,3.15
2023-03-03T11:35:19.392Z,2.92
2023-03-03T11:37:54.948Z,3.22
2023-03-03T11:40:01.517Z,3.67
2023-03-03T11:42:11.870Z,3.47
2023-03-03T11:44:27.380Z,3.35
2023-03-03T11:46:45.452Z,3.28
2023-03-03T11:49:08.298Z,2.40
2023-03-03T11:51:28.892Z,2.42
2023-03-03T11:53:39.860Z,2.22
2023-03-03T11:55:49.354Z,2.30
2023-03-03T11:58:00.988Z,2.35
2023-03-03T12:00:09.466Z,2.25
2023-03-03T12:02:29.182Z,1.95
2023-03-03T12:04:34.566Z,1.92
2023-03-03T12:07:22.053Z,2.22
2023-03-03T12:09:42.103Z,2.08
2023-03-03T12:12:09.944Z,2.17
2023-03-03T12:14:22.761Z,2.55
2023-03-03T12:17:13.547Z,2.20
2023-03-03T12:19:30.082Z,1.95
2023-03-03T12:21:46.383Z,2.50
2023-03-03T12:24:09.464Z,2.35
2023-03-03T12:26:25.830Z,2.30
2023-03-03T12:28:40.932Z,2.45
2023-03-03T12:31:10.616Z,2.33
2023-03-03T12:33:30.952Z,2.80
2023-03-03T12:36:03.000Z,3.38
2023-03-03T12:38:27.453Z,3.00
2023-03-03T12:40:33.914Z,3.00
2023-03-03T12:42:47.428Z,3.08
2023-03-03T12:44:51.847Z,2.90
2023-03-03T12:47:13.468Z,2.70
2023-03-03T12:49:15.033Z,2.72
2023-03-03T12:51:33.682Z,2.70
2023-03-03T12:56:01.224Z,2.13
2023-03-03T12:58:23.943Z,2.60
2023-03-03T13:00:28.474Z,2.42
2023-03-03T13:02:40.950Z,2.17
2023-03-03T13:05:20.880Z,2.03
2023-03-03T13:07:49.859Z,1.90
2023-03-03T13:09:57.435Z,1.75
2023-03-03T13:12:01.862Z,1.65
2023-03-03T13:14:36.643Z,2.00
2023-03-03T13:16:46.593Z,1.80
2023-03-03T13:18:50.983Z,1.50
2023-03-03T13:21:05.383Z,1.27
2023-03-03T13:23:25.629Z,1.40
2023-03-03T13:25:40.111Z,1.60
2023-03-03T13:27:45.579Z,1.30
2023-03-03T13:30:22.842Z,1.42
2023-03-03T13:32:37.428Z,1.33
2023-03-03T13:35:17.813Z,1.30
2023-03-03T13:37:24.255Z,1.17
2023-03-03T13:39:30.782Z,1.10
2023-03-03T13:41:46.971Z,1.17
2023-03-03T13:43:52.297Z,1.20
2023-03-03T13:45:59.774Z,0.85
2023-03-03T13:48:38.983Z,0.80
2023-03-03T13:50:50.913Z,1.05
2023-03-03T13:53:24.236Z,1.17
2023-03-03T13:55:40.819Z,1.20
2023-03-03T13:58:01.178Z,1.17
2023-03-03T14:00:24.126Z,1.00
2023-03-03T14:02:54.017Z,1.17
2023-03-03T14:05:04.585Z,1.33
2023-03-03T14:07:17.957Z,1.50
2023-03-03T14:09:46.510Z,1.40
2023-03-03T14:11:59.977Z,1.23
2023-03-03T14:14:18.277Z,1.52
2023-03-03T14:16:34.236Z,1.27
2023-03-03T14:18:39.807Z,1.38
2023-03-03T14:20:49.168Z,1.00
2023-03-03T14:23:01.049Z,1.30
2023-03-03T14:25:12.344Z,1.25
2023-03-03T14:27:24.818Z,1.45
2023-03-03T14:29:26.237Z,1.00
2023-03-03T14:31:38.295Z,1.88
2023-03-03T14:33:43.914Z,1.52
2023-03-03T14:36:09.615Z,1.90
2023-03-03T14:38:21.638Z,1.67
2023-03-03T14:40:34.254Z,1.85
2023-03-03T14:42:44.974Z,1.67
2023-03-03T14:44:46.337Z,1.75
2023-03-03T14:47:03.034Z,1.67
2023-03-03T14:49:13.337Z,1.60
2023-03-03T14:51:28.923Z,2.42
2023-03-03T14:53:35.656Z,1.70
2023-03-03T14:55:40.229Z,1.63
2023-03-03T14:57:46.975Z,1.60
2023-03-03T15:02:15.681Z,1.50
2023-03-03T15:04:17.098Z,1.52
2023-03-03T15:06:44.885Z,1.88
2023-03-03T15:08:47.981Z,1.73
2023-03-03T15:10:49.462Z,1.65
2023-03-03T15:12:52.296Z,2.30
2023-03-03T15:15:11.293Z,1.98
2023-03-03T15:17:23.818Z,1.75
2023-03-03T15:19:41.990Z,1.98
2023-03-03T15:21:58.786Z,2.25
2023-03-03T15:24:05.968Z,2.10
2023-03-03T15:26:28.796Z,1.80
2023-03-03T15:28:39.594Z,2.35
2023-03-03T15:30:51.151Z,2.30
2023-03-03T15:33:03.812Z,2.20
2023-03-03T15:35:17.521Z,2.25
2023-03-03T15:37:43.653Z,2.45
2023-03-03T15:40:09.301Z,2.10
2023-03-03T15:42:26.989Z,2.22
2023-03-03T15:44:49.974Z,1.60
2023-03-03T15:46:57.346Z,2.00
2023-03-03T15:49:17.205Z,2.17
2023-03-03T15:52:02.804Z,2.58
2023-03-03T15:54:31.018Z,2.17
2023-03-03T15:56:58.455Z,2.63
2023-03-03T15:59:21.580Z,1.92
2023-03-03T16:01:33.901Z,1.75
2023-03-03T16:03:45.668Z,2.13
2023-03-03T16:05:57.668Z,1.98
2023-03-03T16:08:13.918Z,2.10
2023-03-03T16:10:28.810Z,2.17
2023-03-03T16:12:55.126Z,2.17
2023-03-03T16:15:09.097Z,1.95
2023-03-03T16:17:27.700Z,1.73
2023-03-03T16:19:47.476Z,1.85
2023-03-03T16:22:15.591Z,1.73
2023-03-03T16:24:26.080Z,1.92
2023-03-03T16:26:31.537Z,1.63
2023-03-03T16:28:50.592Z,1.45
2023-03-03T16:30:54.753Z,1.73
2023-03-03T16:33:15.508Z,1.30
2023-03-03T16:35:39.672Z,1.42
2023-03-03T16:37:59.675Z,1.33
2023-03-03T16:40:29.008Z,1.00
2023-03-03T16:42:33.230Z,1.10
2023-03-03T16:44:47.386Z,1.27
2023-03-03T16:46:50.026Z,0.90
2023-03-03T16:48:56.629Z,0.95
2023-03-03T16:51:13.024Z,1.10
2023-03-03T16:53:33.144Z,1.13
2023-03-03T16:55:43.830Z,1.00
2023-03-03T16:57:54.015Z,0.88
2023-03-03T17:00:19.454Z,1.42
2023-03-03T17:03:12.081Z,1.40
2023-03-03T17:05:33.401Z,1.20
2023-03-03T17:07:56.965Z,1.35
2023-03-03T17:10:04.591Z,1.50
2023-03-03T17:12:27.837Z,0.90
2023-03-03T17:14:55.569Z,1.23
2023-03-03T17:17:04.015Z,1.48
2023-03-03T17:19:25.716Z,1.40
2023-03-03T17:21:45.796Z,1.13
2023-03-03T17:23:53.213Z,1.48
2023-03-03T17:26:04.394Z,1.97
2023-03-03T17:28:30.640Z,1.35
2023-03-03T17:31:10.045Z,1.33
2023-03-03T17:33:36.739Z,1.40
2023-03-03T17:35:47.132Z,2.25
2023-03-03T17:37:58.098Z,1.30
2023-03-03T17:40:20.050Z,1.88
2023-03-03T17:42:31.309Z,1.70
2023-03-03T17:45:03.372Z,1.58
2023-03-03T17:47:10.132Z,1.98
2023-03-03T17:49:45.788Z,1.95
2023-03-03T17:52:07.433Z,1.98
2023-03-03T17:54:26.406Z,2.25
2023-03-03T17:56:52.676Z,1.65
2023-03-03T17:59:22.136Z,1.95
2023-03-03T18:01:47.609Z,2.13
2023-03-03T18:04:36.104Z,2.70
2023-03-03T18:07:15.162Z,1.85
2023-03-03T18:09:37.305Z,1.98
2023-03-03T18:11:59.924Z,2.78
2023-03-03T18:14:49.873Z,1.95
2023-03-03T18:16:51.284Z,1.92
2023-03-03T18:19:31.509Z,2.85
2023-03-03T18:22:02.999Z,2.67
2023-03-03T18:24:28.010Z,2.58
2023-03-03T18:26:40.638Z,2.28
2023-03-03T18:28:49.398Z,3.20
2023-03-03T18:35:24.970Z,2.58
2023-03-03T18:37:29.746Z,3.20
2023-03-03T18:39:46.275Z,3.00
2023-03-03T18:42:16.967Z,2.58
2023-03-03T18:44:29.115Z,3.45
2023-03-03T18:46:36.708Z,2.72
2023-03-03T18:48:57.546Z,3.20
2023-03-03T18:50:59.014Z,2.33
2023-03-03T18:53:18.731Z,2.47
2023-03-03T18:55:26.048Z,2.65
2023-03-03T18:57:27.809Z,3.15
2023-03-03T18:59:35.247Z,4.22
2023-03-03T19:01:41.847Z,3.03
2023-03-03T19:03:47.058Z,2.13
2023-03-03T19:05:54.016Z,3.03
2023-03-03T19:08:02.958Z,3.17
2023-03-03T19:10:28.047Z,3.53
2023-03-03T19:12:56.850Z,3.88
2023-03-03T19:14:58.640Z,3.83
2023-03-03T19:17:22.777Z,3.47
2023-03-03T19:19:54.000Z,3.03
2023-03-03T19:22:26.174Z,3.30
2023-03-03T19:24:31.350Z,3.83
2023-03-03T19:27:05.852Z,3.35
2023-03-03T19:29:13.348Z,3.55
2023-03-03T19:31:38.380Z,3.42
2023-03-03T19:33:42.815Z,3.53
2023-03-03T19:35:51.381Z,3.78
2023-03-03T19:38:11.674Z,3.40
2023-03-03T19:40:19.298Z,3.22
2023-03-03T19:42:50.240Z,4.10
2023-03-03T19:45:19.866Z,3.47
2023-03-03T19:47:33.235Z,3.80
2023-03-03T19:49:44.067Z,3.67
2023-03-03T19:52:31.448Z,3.67
2023-03-03T19:55:00.634Z,3.17
2023-03-03T19:57:04.697Z,2.72
2023-03-03T19:59:44.949Z,3.90
2023-03-03T20:02:13.724Z,3.08
2023-03-03T20:04:40.133Z,3.05
2023-03-03T20:07:09.586Z,3.40
2023-03-03T20:09:50.225Z,3.38
2023-03-03T20:12:47.579Z,3.38
2023-03-03T20:14:55.234Z,3.03
2023-03-03T20:17:11.700Z,3.15
2023-03-03T20:19:45.631Z,2.92
2023-03-03T20:22:08.939Z,3.50
2023-03-03T20:24:26.134Z,3.00
2023-03-03T20:26:52.356Z,3.83
2023-03-03T20:29:02.927Z,3.15
2023-03-03T20:31:20.182Z,2.83
2023-03-03T20:33:44.177Z,3.30
2023-03-03T20:36:06.910Z,3.30
2023-03-03T20:38:20.968Z,2.80
2023-03-03T20:40:47.479Z,3.13
2023-03-03T20:43:06.416Z,3.75
2023-03-03T20:45:29.770Z,3.90
2023-03-03T20:47:46.454Z,3.45
2023-03-03T20:50:25.591Z,5.03
2023-03-03T20:53:02.360Z,4.75
2023-03-03T20:55:32.012Z,3.00
2023-03-03T20:57:48.731Z,3.05
2023-03-03T21:00:01.702Z,3.22
2023-03-03T21:02:05.825Z,3.65
2023-03-03T21:04:27.798Z,2.85
2023-03-03T21:06:38.900Z,4.60
2023-03-03T21:08:40.344Z,3.10
2023-03-03T21:10:42.673Z,3.72
2023-03-03T21:12:44.307Z,3.88
2023-03-03T21:14:59.524Z,3.65
2023-03-03T21:17:11.276Z,3.80
2023-03-03T21:19:23.192Z,3.28
2023-03-03T21:21:26.457Z,3.42
2023-03-03T21:23:27.963Z,3.85
2023-03-03T21:25:41.742Z,3.28
2023-03-03T21:27:43.196Z,3.40
2023-03-03T21:29:44.657Z,3.40
2023-03-03T21:31:53.387Z,3.47
2023-03-03T21:35:58.605Z,4.40
2023-03-03T21:38:00.095Z,3.13
2023-03-03T21:40:26.257Z,3.35
2023-03-03T21:42:42.385Z,4.15
2023-03-03T21:44:52.217Z,3.80
2023-03-03T21:46:53.699Z,3.83
2023-03-03T21:48:55.132Z,3.05
2023-03-03T21:50:56.780Z,2.63
2023-03-03T21:52:58.237Z,3.35
2023-03-03T21:54:59.742Z,3.22
2023-03-03T21:57:01.224Z,3.38
2023-03-03T21:59:02.667Z,3.72
2023-03-03T22:01:05.964Z,3.83
2023-03-03T22:03:07.444Z,3.60
2023-03-03T22:05:08.994Z,3.40
2023-03-03T22:07:10.843Z,3.60
2023-03-03T22:09:12.420Z,2.60
2023-03-03T22:11:15.554Z,3.58
2023-03-03T22:13:20.096Z,3.60
2023-03-03T22:15:21.777Z,3.22
2023-03-03T22:17:25.471Z,3.45
2023-03-03T22:19:27.044Z,3.65
2023-03-03T22:21:28.878Z,3.42
2023-03-03T22:23:30.336Z,3.40
2023-03-03T22:25:32.087Z,3.40
2023-03-03T22:27:33.691Z,3.72
2023-03-03T22:29:35.161Z,3.45
2023-03-03T22:31:37.340Z,2.65
2023-03-03T22:33:39.109Z,3.25
2023-03-03T22:35:40.706Z,3.13
2023-03-03T22:37:42.209Z,3.20
2023-03-03T22:39:43.699Z,3.38
2023-03-03T22:41:45.184Z,3.30
2023-03-03T22:43:47.922Z,2.55
2023-03-03T22:45:50.528Z,3.33
2023-03-03T22:47:52.119Z,3.28
2023-03-03T22:49:53.806Z,2.80
2023-03-03T22:51:58.666Z,2.83
2023-03-03T22:54:00.189Z,2.45
2023-03-03T22:56:01.763Z,3.65
2023-03-03T22:58:09.345Z,2.85
2023-03-03T23:00:11.874Z,2.95
2023-03-03T23:02:13.374Z,2.20
2023-03-03T23:04:14.912Z,2.70
2023-03-03T23:06:16.497Z,2.55
2023-03-03T23:08:19.289Z,2.50
2023-03-03T23:10:20.843Z,3.10
2023-03-03T23:12:23.443Z,2.55
2023-03-03T23:14:25.520Z,2.28
2023-03-03T23:16:27.135Z,2.45
2023-03-03T23:18:29.515Z,2.33
2023-03-03T23:20:31.680Z,2.67
2023-03-03T23:22:33.173Z,2.15
2023-03-03T23:24:34.680Z,2.65
2023-03-03T23:26:36.144Z,2.13
2023-03-03T23:28:37.637Z,2.28
2023-03-03T23:30:39.083Z,1.88
2023-03-03T23:32:41.287Z,2.58
2023-03-03T23:34:42.754Z,2.28
2023-03-03T23:36:44.210Z,1.98
2023-03-03T23:38:45.742Z,2.47
2023-03-03T23:40:47.197Z,2.22
2023-03-03T23:42:48.656Z,2.53
2023-03-03T23:44:50.556Z,2.33
2023-03-03T23:46:52.153Z,2.15
2023-03-03T23:48:53.698Z,2.40
2023-03-03T23:50:55.140Z,2.83
2023-03-03T23:52:56.676Z,2.50
2023-03-03T23:54:58.140Z,1.27
2023-03-03T23:56:59.735Z,2.42
2023-03-03T23:59:01.302Z,2.13
